createdAt,value
2022-09-25T00:03:32.179Z,6.80
2022-09-25T00:08:35.821Z,6.80
2022-09-25T00:13:40.861Z,6.70
2022-09-25T00:19:02.488Z,6.70
2022-09-25T00:24:10.455Z,6.70
2022-09-25T00:29:18.662Z,6.80
2022-09-25T00:34:21.313Z,6.80
2022-09-25T00:39:24.530Z,6.70
2022-09-25T00:44:58.735Z,6.80
2022-09-25T00:50:03.129Z,6.90
2022-09-25T00:55:08.273Z,7.00
2022-09-25T01:00:12.863Z,7.00
2022-09-25T01:05:18.849Z,7.00
2022-09-25T01:10:22.131Z,6.90
2022-09-25T01:15:37.343Z,6.90
2022-09-25T01:21:17.588Z,6.90
2022-09-25T01:26:34.870Z,6.80
2022-09-25T01:31:48.409Z,6.80
2022-09-25T01:37:10.705Z,6.60
2022-09-25T01:42:22.541Z,6.80
2022-09-25T01:47:28.727Z,6.70
2022-09-25T01:52:45.026Z,6.90
2022-09-25T01:57:59.135Z,7.10
2022-09-25T02:03:11.731Z,7.10
2022-09-25T02:08:22.421Z,7.20
2022-09-25T02:13:28.501Z,7.30
2022-09-25T02:18:49.743Z,7.40
2022-09-25T02:24:40.734Z,7.40
2022-09-25T02:29:43.341Z,7.40
2022-09-25T02:34:46.472Z,7.50
2022-09-25T02:39:54.801Z,7.50
2022-09-25T02:45:03.394Z,7.50
2022-09-25T02:50:50.689Z,7.60
2022-09-25T02:56:14.602Z,7.60
2022-09-25T03:01:20.615Z,7.80
2022-09-25T03:06:24.301Z,7.90
2022-09-25T03:11:27.851Z,7.90
2022-09-25T03:16:49.198Z,7.90
2022-09-25T03:21:51.863Z,7.90
2022-09-25T03:26:54.781Z,7.90
2022-09-25T03:31:57.475Z,7.90
2022-09-25T03:37:00.156Z,8.00
2022-09-25T03:42:02.832Z,8.00
2022-09-25T03:47:05.431Z,8.00
2022-09-25T03:52:08.514Z,7.90
2022-09-25T03:57:13.016Z,7.90
2022-09-25T04:02:15.709Z,7.90
2022-09-25T04:07:18.431Z,7.90
2022-09-25T04:12:22.761Z,7.80
2022-09-25T04:17:25.464Z,7.70
2022-09-25T04:22:28.078Z,7.70
2022-09-25T04:27:30.825Z,7.70
2022-09-25T04:32:52.559Z,7.60
2022-09-25T04:37:55.295Z,7.60
2022-09-25T04:43:03.171Z,7.60
2022-09-25T04:48:06.145Z,7.60
2022-09-25T04:53:09.171Z,7.70
2022-09-25T04:58:12.049Z,7.70
2022-09-25T05:03:15.767Z,7.70
2022-09-25T05:08:18.684Z,7.80
2022-09-25T05:13:21.599Z,7.90
2022-09-25T05:18:24.768Z,8.00
2022-09-25T05:23:27.332Z,8.30
2022-09-25T05:28:31.741Z,8.30
2022-09-25T05:33:35.621Z,8.50
2022-09-25T05:38:40.006Z,8.60
2022-09-25T05:43:45.130Z,8.80
2022-09-25T05:48:48.002Z,8.90
2022-09-25T05:53:50.567Z,8.90
2022-09-25T05:58:54.375Z,9.10
2022-09-25T06:03:57.016Z,9.40
2022-09-25T06:08:59.866Z,9.50
2022-09-25T06:14:04.206Z,9.70
2022-09-25T06:19:07.013Z,9.90
2022-09-25T06:24:11.009Z,10.10
2022-09-25T06:29:13.717Z,10.40
2022-09-25T06:34:16.487Z,10.40
2022-09-25T06:39:19.163Z,10.50
2022-09-25T06:44:23.150Z,10.60
2022-09-25T06:49:26.012Z,10.70
2022-09-25T06:54:31.290Z,10.80
2022-09-25T06:59:33.974Z,11.00
2022-09-25T07:04:37.201Z,11.20
2022-09-25T07:09:39.876Z,11.70
2022-09-25T07:14:44.706Z,12.10
2022-09-25T07:19:47.342Z,12.30
2022-09-25T07:24:50.032Z,12.60
2022-09-25T07:29:52.989Z,13.00
2022-09-25T07:34:55.777Z,13.20
2022-09-25T07:39:58.433Z,13.30
2022-09-25T07:45:01.176Z,13.60
2022-09-25T07:50:04.966Z,14.00
2022-09-25T07:55:08.743Z,14.30
2022-09-25T08:00:12.284Z,14.40
2022-09-25T08:05:15.522Z,14.30
2022-09-25T08:10:19.323Z,14.30
2022-09-25T08:15:22.309Z,14.40
2022-09-25T08:20:24.953Z,14.80
2022-09-25T08:25:27.725Z,15.00
2022-09-25T08:30:30.640Z,15.20
2022-09-25T08:35:33.412Z,15.40
2022-09-25T08:40:57.499Z,15.80
2022-09-25T08:46:20.148Z,16.10
2022-09-25T08:51:23.083Z,16.20
2022-09-25T08:56:28.942Z,15.90
2022-09-25T09:01:52.469Z,15.80
2022-09-25T09:07:25.844Z,15.90
2022-09-25T09:12:39.590Z,16.30
2022-09-25T09:17:43.424Z,16.30
2022-09-25T09:22:51.204Z,16.00
2022-09-25T09:28:13.105Z,15.80
2022-09-25T09:33:34.523Z,15.40
2022-09-25T09:39:32.344Z,16.00
2022-09-25T09:44:57.932Z,16.10
2022-09-25T09:50:19.337Z,16.40
2022-09-25T09:55:31.195Z,16.00
2022-09-25T10:00:35.420Z,15.80
2022-09-25T10:05:45.826Z,15.60
2022-09-25T10:10:54.171Z,15.60
2022-09-25T10:16:11.624Z,15.80
2022-09-25T10:21:22.704Z,15.70
2022-09-25T10:26:30.413Z,15.50
2022-09-25T10:31:38.880Z,15.40
2022-09-25T10:36:47.165Z,15.40
2022-09-25T10:41:50.204Z,15.50
2022-09-25T10:47:15.734Z,15.60
2022-09-25T10:52:22.451Z,15.50
2022-09-25T10:57:38.537Z,15.60
2022-09-25T11:02:46.797Z,15.40
2022-09-25T11:07:59.342Z,15.10
2022-09-25T11:13:21.808Z,15.10
2022-09-25T11:18:46.520Z,15.40
2022-09-25T11:24:04.502Z,15.40
2022-09-25T11:29:21.484Z,15.30
2022-09-25T11:34:35.921Z,15.30
2022-09-25T11:40:25.912Z,15.30
2022-09-25T11:45:39.512Z,15.30
2022-09-25T11:51:03.154Z,15.30
2022-09-25T11:56:43.983Z,15.70
2022-09-25T12:01:53.282Z,15.90
2022-09-25T12:07:13.464Z,15.80
2022-09-25T12:12:54.487Z,15.70
2022-09-25T12:18:25.421Z,15.90
2022-09-25T12:23:28.155Z,16.00
2022-09-25T12:28:43.654Z,15.90
2022-09-25T12:34:09.362Z,16.10
2022-09-25T12:40:04.005Z,16.20
2022-09-25T12:45:33.120Z,15.90
2022-09-25T12:50:48.025Z,15.70
2022-09-25T12:56:13.945Z,15.50
2022-09-25T13:01:46.310Z,15.40
2022-09-25T13:07:20.898Z,15.40
2022-09-25T13:12:38.020Z,15.40
2022-09-25T13:17:40.990Z,15.50
2022-09-25T13:22:43.723Z,15.60
2022-09-25T13:27:47.381Z,15.50
2022-09-25T13:32:56.264Z,15.40
2022-09-25T13:38:36.239Z,15.40
2022-09-25T13:43:39.071Z,15.20
2022-09-25T13:48:42.013Z,15.10
2022-09-25T13:54:04.056Z,15.00
2022-09-25T13:59:13.349Z,15.00
2022-09-25T14:04:19.592Z,15.00
2022-09-25T14:09:25.120Z,14.90
2022-09-25T14:14:37.060Z,14.80
2022-09-25T14:19:44.181Z,14.80
2022-09-25T14:24:47.809Z,14.60
2022-09-25T14:29:50.830Z,14.50
2022-09-25T14:35:17.620Z,14.40
2022-09-25T14:40:30.396Z,14.30
2022-09-25T14:45:48.645Z,14.30
2022-09-25T14:50:59.012Z,14.40
2022-09-25T14:56:04.047Z,14.40
2022-09-25T15:01:29.920Z,14.30
2022-09-25T15:06:35.705Z,14.40
2022-09-25T15:11:43.660Z,14.20
2022-09-25T15:17:05.680Z,14.10
2022-09-25T15:22:18.179Z,14.10
2022-09-25T15:27:22.865Z,14.00
2022-09-25T15:32:35.590Z,14.00
2022-09-25T15:37:39.035Z,13.80
2022-09-25T15:42:46.228Z,13.80
2022-09-25T15:47:52.603Z,13.80
2022-09-25T15:52:58.974Z,13.70
2022-09-25T15:58:13.363Z,13.60
2022-09-25T16:03:45.248Z,13.50
2022-09-25T16:08:48.220Z,13.40
2022-09-25T16:14:16.800Z,13.30
2022-09-25T16:19:25.683Z,13.30
2022-09-25T16:24:30.102Z,13.30
2022-09-25T16:29:37.545Z,13.20
2022-09-25T16:34:41.921Z,13.10
2022-09-25T16:39:44.972Z,13.00
2022-09-25T16:44:49.412Z,13.00
2022-09-25T16:49:52.282Z,12.90
2022-09-25T16:54:57.638Z,12.80
2022-09-25T17:00:01.375Z,12.80
2022-09-25T17:05:19.612Z,12.70
2022-09-25T17:10:25.330Z,12.60
2022-09-25T17:15:33.009Z,12.50
2022-09-25T17:20:36.220Z,12.40
2022-09-25T17:25:50.081Z,12.30
2022-09-25T17:30:53.096Z,12.20
2022-09-25T17:36:05.742Z,12.20
2022-09-25T17:41:21.014Z,12.20
2022-09-25T17:46:25.267Z,12.10
2022-09-25T17:51:30.154Z,12.10
2022-09-25T17:56:35.048Z,12.20
2022-09-25T18:01:39.935Z,12.10
2022-09-25T18:06:43.809Z,12.10
2022-09-25T18:11:46.903Z,12.00
2022-09-25T18:16:49.695Z,12.00
2022-09-25T18:22:10.814Z,12.00
2022-09-25T18:27:15.709Z,12.00
2022-09-25T18:32:18.699Z,12.00
2022-09-25T18:37:21.566Z,12.00
2022-09-25T18:42:24.410Z,12.10
2022-09-25T18:47:27.576Z,12.20
2022-09-25T18:52:31.669Z,12.20
2022-09-25T18:57:38.475Z,12.10
2022-09-25T19:02:44.032Z,12.00
2022-09-25T19:07:46.878Z,12.10
2022-09-25T19:12:49.617Z,12.10
2022-09-25T19:17:52.466Z,12.10
2022-09-25T19:22:55.420Z,12.10
2022-09-25T19:27:58.107Z,12.10
2022-09-25T19:33:00.877Z,12.10
2022-09-25T19:38:03.616Z,12.00
2022-09-25T19:43:08.397Z,12.10
2022-09-25T19:48:11.159Z,12.10
2022-09-25T19:53:14.406Z,12.10
2022-09-25T19:58:19.937Z,12.10
2022-09-25T20:03:25.866Z,12.10
2022-09-25T20:08:28.896Z,12.10
2022-09-25T20:13:32.256Z,12.10
2022-09-25T20:18:34.960Z,12.00
2022-09-25T20:23:37.838Z,11.90
2022-09-25T20:28:42.386Z,11.90
2022-09-25T20:33:45.479Z,11.80
2022-09-25T20:38:53.404Z,11.70
2022-09-25T20:43:57.459Z,11.70
2022-09-25T20:49:00.926Z,11.70
2022-09-25T20:54:09.545Z,11.40
2022-09-25T20:59:12.696Z,11.40
2022-09-25T21:04:18.427Z,11.40
2022-09-25T21:09:26.895Z,11.40
2022-09-25T21:14:29.793Z,11.40
2022-09-25T21:19:32.477Z,11.30
2022-09-25T21:24:36.086Z,11.10
2022-09-25T21:29:38.777Z,11.00
2022-09-25T21:34:41.716Z,10.80
2022-09-25T21:39:45.139Z,10.60
2022-09-25T21:44:48.172Z,10.50
2022-09-25T21:49:51.200Z,10.40
2022-09-25T21:54:54.836Z,10.40
2022-09-25T21:59:57.497Z,10.30
2022-09-25T22:05:00.153Z,10.10
2022-09-25T22:10:03.133Z,9.90
2022-09-25T22:15:06.294Z,9.90
2022-09-25T22:20:10.697Z,9.80
2022-09-25T22:25:13.458Z,9.60
2022-09-25T22:30:16.175Z,9.40
2022-09-25T22:35:18.768Z,9.30
2022-09-25T22:40:21.601Z,9.10
2022-09-25T22:45:24.304Z,9.10
2022-09-25T22:50:29.985Z,9.10
2022-09-25T22:55:33.959Z,9.00
2022-09-25T23:00:36.615Z,9.20
2022-09-25T23:05:39.838Z,9.10
2022-09-25T23:11:05.628Z,9.00
2022-09-25T23:16:07.467Z,9.10
2022-09-25T23:21:10.051Z,9.10
2022-09-25T23:26:12.685Z,9.20
2022-09-25T23:31:17.668Z,9.20
2022-09-25T23:36:23.383Z,9.00
2022-09-25T23:41:36.085Z,9.10
2022-09-25T23:46:41.401Z,9.00
2022-09-25T23:51:44.150Z,9.00
2022-09-25T23:56:47.016Z,9.10
